This is the latest recevied weather packets stored in our database for station/object KE5YIM-13. If no packets are shown the sender has not sent any weather packets the latest 10 day(s).
| Time | Temp. | Humidity | Pressure | Rain* | Wind** | Luminosity | Snow |
|---|---|---|---|---|---|---|---|
| 1777470483 | 15.56° C | 59% | 1016.5 hPa | 0 mm | - | 546 W/m² | - |
| 1777470179 | 15.56° C | 56% | 1016.7 hPa | 0 mm | - | 538 W/m² | - |
| 1777469875 | 15° C | 57% | 1016.8 hPa | 0 mm | - | 522 W/m² | - |
| 1777469571 | 14.44° C | 60% | 1016.8 hPa | 0 mm | - | 488 W/m² | - |
| 1777469266 | 14.44° C | 59% | 1016.8 hPa | 0 mm | - | 454 W/m² | - |
| 1777468961 | 15° C | 59% | 1016.8 hPa | 0 mm | - | 483 W/m² | - |
| 1777468657 | 13.89° C | 62% | 1017 hPa | 0 mm | - | 480 W/m² | - |
| 1777468354 | 14.44° C | 62% | 1017.2 hPa | 0 mm | - | 424 W/m² | - |
| 1777468050 | 13.89° C | 62% | 1017.2 hPa | 0 mm | - | 436 W/m² | - |
| 1777467746 | 13.89° C | 61% | 1017.2 hPa | 0 mm | - | 394 W/m² | - |
| 1777467441 | 13.89° C | 63% | 1017.3 hPa | 0 mm | - | 366 W/m² | - |
| 1777467137 | 13.33° C | 66% | 1017.1 hPa | 0 mm | - | 385 W/m² | - |
| 1777466834 | 13.33° C | 64% | 1017.3 hPa | 0 mm | - | 315 W/m² | - |
| 1777466532 | 13.33° C | 64% | 1017.3 hPa | 0 mm | - | 320 W/m² | - |
| 1777466229 | 12.78° C | 64% | 1017.3 hPa | 0 mm | - | 321 W/m² | - |
| 1777465924 | 12.78° C | 64% | 1017.5 hPa | 0 mm | - | 315 W/m² | - |
| 1777465621 | 12.22° C | 67% | 1017.6 hPa | 0 mm | - | 304 W/m² | - |
| 1777465316 | 11.67° C | 69% | 1017.2 hPa | 0 mm | - | 260 W/m² | - |
| 1777465010 | 11.67° C | 70% | 1017.5 hPa | 0 mm | - | 243 W/m² | - |
| 1777464705 | 11.67° C | 73% | 1017.5 hPa | 0 mm | - | 240 W/m² | - |
| 1777464403 | 10° C | 81% | 1017.5 hPa | 0 mm | - | 222 W/m² | - |
| 1777464098 | 10° C | 88% | 1017.8 hPa | 0 mm | - | 189 W/m² | - |
| 1777463798 | 9.44° C | 93% | 1018 hPa | 0 mm | - | 157 W/m² | - |
| 1777463493 | 8.33° C | 95% | 1018 hPa | 0 mm | - | 129 W/m² | - |
| 1777463189 | 7.78° C | 96% | 1018.2 hPa | 0 mm | - | 107 W/m² | - |
* Rain latest hour (hover to see other rain measurements)
** Current wind speed in m/s (hover to see current wind gust speed)